Time;durP1;ratioP1;P1;durP2;ratioP2;P2;SDS_P1;SDS_P2;PMS_P1;PMS_P2;Temp;Humidity;BMP_temperature;BMP_pressure;BME280_temperature;BME280_humidity;BME280_pressure;Samples;Min_cycle;Max_cycle;Signal;HPM_P1;HPM_P2
2022/12/06 00:00:09;;;;;;;12.38;8.20;;;;;;;6.16;76.05;99792.63;345963;28;1816;-69
2022/12/06 00:00:20;;;;;;;12.30;8.30;;;;;;;6.16;76.83;99791.78;345730;28;1294;-69
2022/12/06 00:00:32;;;;;;;10.73;7.88;;;;;;;6.18;76.28;99795.22;345293;28;1624;-69
2022/12/06 00:00:44;;;;;;;10.18;7.55;;;;;;;6.19;76.95;99802.06;345760;28;1685;-69
2022/12/06 00:01:08;;;;;;;10.38;7.47;;;;;;;6.20;76.82;99788.28;345816;28;1103;-69
2022/12/06 00:01:25;;;;;;;12.43;8.13;;;;;;;6.23;76.23;99793.41;345489;28;3024;-69
2022/12/06 00:01:40;;;;;;;12.02;8.00;;;;;;;6.24;76.72;99795.13;346114;28;1344;-69
2022/12/06 00:01:52;;;;;;;11.48;7.53;;;;;;;6.22;76.15;99796.88;345360;28;3579;-69
2022/12/06 00:02:04;;;;;;;12.15;7.63;;;;;;;6.23;76.40;99793.41;345917;28;1958;-69
2022/12/06 00:02:16;;;;;;;12.05;7.82;;;;;;;6.24;76.18;99789.97;346123;28;1283;-69
2022/12/06 00:02:28;;;;;;;12.02;8.35;;;;;;;6.23;76.02;99790.81;346025;28;1090;-69
2022/12/06 00:02:40;;;;;;;12.25;8.70;;;;;;;6.24;76.53;99789.97;344927;28;1818;-69
2022/12/06 00:02:52;;;;;;;12.45;8.80;;;;;;;6.25;75.89;99789.06;344772;28;1034;-69
2022/12/06 00:03:04;;;;;;;12.02;8.40;;;;;;;6.25;76.01;99788.22;344879;28;1091;-69
2022/12/06 00:03:16;;;;;;;11.50;8.20;;;;;;;6.24;76.25;99792.53;344562;28;1210;-69
2022/12/06 00:03:28;;;;;;;12.05;7.88;;;;;;;6.25;76.66;99791.66;344835;28;1288;-69
2022/12/06 00:03:42;;;;;;;12.05;7.72;;;;;;;6.20;76.07;99798.63;345909;28;1317;-69
2022/12/06 00:03:56;;;;;;;11.48;7.72;;;;;;;6.20;76.48;99794.31;346086;28;1647;-69
2022/12/06 00:04:13;;;;;;;10.88;7.70;;;;;;;6.21;76.14;99790.00;345978;28;1058;-69
2022/12/06 00:04:25;;;;;;;12.13;8.20;;;;;;;6.23;76.23;99793.41;345859;28;1563;-69
2022/12/06 00:04:37;;;;;;;12.77;8.30;;;;;;;6.23;76.15;99798.56;346113;28;1297;-69
2022/12/06 00:04:49;;;;;;;11.98;7.85;;;;;;;6.23;76.11;99793.41;345827;28;1098;-69
2022/12/06 00:05:01;;;;;;;11.73;7.93;;;;;;;6.23;76.25;99798.56;346071;28;1255;-69
2022/12/06 00:05:13;;;;;;;12.43;8.20;;;;;;;6.22;76.25;99796.88;345721;28;1318;-69
2022/12/06 00:05:25;;;;;;;13.00;8.25;;;;;;;6.18;75.99;99793.47;345891;28;945;-69
2022/12/06 00:05:37;;;;;;;12.68;7.80;;;;;;;6.14;75.92;99789.22;345520;28;1085;-69
2022/12/06 00:06:01;;;;;;;12.40;7.55;;;;;;;5.97;77.39;99792.00;346061;28;1330;-69
2022/12/06 00:06:18;;;;;;;14.55;8.32;;;;;;;5.89;77.63;99788.59;345100;28;1101;-69
2022/12/06 00:06:35;;;;;;;14.43;8.23;;;;;;;5.62;78.38;99791.50;344852;28;1311;-69
2022/12/06 00:06:50;;;;;;;13.57;8.00;;;;;;;5.42;78.83;99792.53;344804;28;1087;-69
2022/12/06 00:07:02;;;;;;;13.52;8.15;;;;;;;5.35;80.18;99793.47;344746;28;954;-69
2022/12/06 00:07:14;;;;;;;13.32;8.27;;;;;;;5.42;79.77;99791.69;344910;28;1059;-69
2022/12/06 00:07:26;;;;;;;14.25;8.57;;;;;;;5.48;79.54;99792.50;344595;28;1166;-69
2022/12/06 00:07:38;;;;;;;13.50;8.57;;;;;;;5.54;79.40;99789.84;346003;28;1301;-69
2022/12/06 00:07:50;;;;;;;13.20;8.52;;;;;;;5.58;79.28;99791.53;346090;28;1196;-69
2022/12/06 00:08:02;;;;;;;12.93;8.18;;;;;;;5.64;79.59;99793.19;345159;28;1801;-69
2022/12/06 00:08:14;;;;;;;12.70;8.07;;;;;;;5.69;78.57;99793.97;346356;28;1081;-69
2022/12/06 00:08:27;;;;;;;12.23;7.85;;;;;;;5.72;79.30;99788.81;345624;28;1829;-69
2022/12/06 00:08:39;;;;;;;11.88;8.00;;;;;;;5.73;78.47;99789.66;345642;28;1093;-69
2022/12/06 00:08:51;;;;;;;12.43;8.45;;;;;;;5.70;78.32;99787.13;344958;28;2096;-69
2022/12/06 00:09:03;;;;;;;14.63;8.70;;;;;;;5.74;78.02;99788.78;345044;28;1364;-69
2022/12/06 00:09:35;;;;;;;14.48;8.27;;;;;;;5.57;77.90;99789.84;345012;28;1126;-69
2022/12/06 00:09:47;;;;;;;10.98;7.35;;;;;;;5.46;78.44;99789.06;344720;28;1292;-69
2022/12/06 00:09:59;;;;;;;13.57;7.50;;;;;;;5.42;78.33;99787.38;344946;28;1102;-69
2022/12/06 00:10:12;;;;;;;14.35;7.72;;;;;;;5.34;78.75;99786.59;344714;28;1216;-69
2022/12/06 00:10:24;;;;;;;11.63;7.82;;;;;;;5.19;78.99;99792.72;344549;28;1317;-69
2022/12/06 00:10:36;;;;;;;12.63;8.00;;;;;;;5.10;79.12;99791.09;344882;28;2153;-69
2022/12/06 00:10:49;;;;;;;12.88;8.07;;;;;;;5.02;79.08;99792.03;345122;28;1949;-69
2022/12/06 00:11:12;;;;;;;13.25;8.13;;;;;;;5.07;79.09;99786.00;345947;28;1078;-69
2022/12/06 00:11:30;;;;;;;12.93;8.00;;;;;;;5.08;78.09;99792.84;345070;28;1834;-69
2022/12/06 00:11:42;;;;;;;11.82;8.13;;;;;;;5.11;78.69;99792.81;345076;28;1770;-69
2022/12/06 00:11:55;;;;;;;13.00;8.05;;;;;;;5.14;78.36;99790.22;345888;28;2024;-69
2022/12/06 00:12:07;;;;;;;13.43;7.80;;;;;;;5.23;78.78;99786.69;345918;28;1525;-69
2022/12/06 00:12:19;;;;;;;13.30;7.95;;;;;;;5.29;78.72;99790.94;345329;28;2004;-69
2022/12/06 00:12:31;;;;;;;13.15;8.00;;;;;;;5.31;78.65;99784.03;344686;28;1099;-69
2022/12/06 00:12:43;;;;;;;12.98;7.93;;;;;;;5.34;78.80;99778.88;343038;28;5647;-69
2022/12/06 00:12:55;;;;;;;12.55;7.80;;;;;;;5.37;79.31;99777.13;345449;28;3335;-69
2022/12/06 00:13:07;;;;;;;11.90;7.90;;;;;;;5.41;78.69;99783.09;346023;28;1171;-69
2022/12/06 00:13:19;;;;;;;11.07;7.75;;;;;;;5.42;78.80;99782.22;345405;28;1553;-69
2022/12/06 00:13:31;;;;;;;11.52;7.63;;;;;;;5.42;79.28;99787.38;344597;28;1069;-70
2022/12/06 00:13:43;;;;;;;11.77;7.57;;;;;;;5.42;79.33;99782.22;345387;28;1382;-69
2022/12/06 00:14:01;;;;;;;11.02;7.22;;;;;;;5.47;78.86;99780.44;346050;28;1051;-69
2022/12/06 00:14:13;;;;;;;10.73;7.03;;;;;;;5.49;78.79;99788.19;346170;28;1286;-69
2022/12/06 00:14:26;;;;;;;11.35;7.38;;;;;;;5.50;79.18;99774.44;346004;28;1599;-69
2022/12/06 00:14:38;;;;;;;11.32;7.57;;;;;;;5.54;79.01;99782.13;343509;28;2425;-69
2022/12/06 00:14:49;;;;;;;11.68;7.55;;;;;;;5.56;79.31;99774.38;343388;28;3090;-69
2022/12/06 00:15:01;;;;;;;11.73;7.50;;;;;;;5.57;78.89;99782.09;344585;28;1849;-69
2022/12/06 00:15:13;;;;;;;11.18;7.47;;;;;;;5.57;78.71;99782.09;345815;28;1272;-69
2022/12/06 00:15:25;;;;;;;16.67;8.15;;;;;;;5.54;78.43;99784.69;344881;28;1658;-69
2022/12/06 00:15:37;;;;;;;16.27;7.95;;;;;;;5.49;78.23;99778.72;344563;28;1347;-69
2022/12/06 00:15:49;;;;;;;11.05;7.70;;;;;;;5.48;77.87;99782.19;344367;28;1284;-69
2022/12/06 00:16:03;;;;;;;10.68;7.68;;;;;;;5.42;78.09;99782.22;344690;28;1249;-69
2022/12/06 00:16:16;;;;;;;11.50;7.90;;;;;;;5.36;78.16;99782.28;344631;28;1232;-69
2022/12/06 00:16:28;;;;;;;11.52;7.90;;;;;;;5.31;78.28;99779.78;343451;28;1167;-69
2022/12/06 00:16:41;;;;;;;11.18;7.50;;;;;;;5.27;78.57;99778.09;344307;28;1190;-69
2022/12/06 00:16:53;;;;;;;11.27;7.30;;;;;;;5.25;77.89;99784.09;346203;28;1300;-69
2022/12/06 00:17:05;;;;;;;11.52;7.32;;;;;;;5.25;78.26;99776.38;345460;28;1781;-69
2022/12/06 00:17:17;;;;;;;9.82;7.18;;;;;;;5.23;79.04;99783.25;346061;28;1370;-69
2022/12/06 00:17:31;;;;;;;10.50;7.25;;;;;;;5.19;78.82;99780.72;346170;28;1252;-69
2022/12/06 00:17:43;;;;;;;12.27;7.45;;;;;;;5.25;78.81;99778.94;347022;28;1837;-69
2022/12/06 00:17:55;;;;;;;13.80;7.35;;;;;;;5.30;78.71;99777.19;347309;28;1631;-69
2022/12/06 00:18:07;;;;;;;12.45;7.10;;;;;;;5.24;78.38;99777.25;347450;28;1304;-69
2022/12/06 00:18:19;;;;;;;12.48;7.07;;;;;;;5.22;78.31;99779.00;347466;28;1348;-69
2022/12/06 00:18:33;;;;;;;11.17;7.03;;;;;;;5.10;78.73;99780.78;345886;28;1070;-69
2022/12/06 00:18:46;;;;;;;11.93;7.30;;;;;;;5.04;79.37;99780.84;345178;28;2340;-69
2022/12/06 00:18:59;;;;;;;12.25;7.57;;;;;;;5.09;79.25;99778.22;346096;28;1867;-69
2022/12/06 00:19:13;;;;;;;11.63;7.60;;;;;;;5.17;79.06;99774.72;346327;28;1102;-69
2022/12/06 00:19:25;;;;;;;11.73;7.50;;;;;;;5.18;79.30;99770.44;344872;28;1343;-69
2022/12/06 00:19:37;;;;;;;12.13;7.55;;;;;;;5.15;79.44;99779.03;345826;28;1238;-69
2022/12/06 00:19:49;;;;;;;11.90;7.60;;;;;;;5.17;79.04;99777.31;346011;28;1276;-69
2022/12/06 00:20:01;;;;;;;11.52;7.72;;;;;;;5.16;79.09;99780.75;345272;28;1826;-69
2022/12/06 00:20:13;;;;;;;11.68;7.72;;;;;;;5.06;78.43;99789.41;345151;28;1718;-69
2022/12/06 00:20:25;;;;;;;12.15;7.63;;;;;;;5.02;78.82;99776.56;344580;28;1484;-69
2022/12/06 00:20:37;;;;;;;12.77;7.60;;;;;;;5.02;79.13;99777.44;343313;28;1869;-69
2022/12/06 00:20:49;;;;;;;12.85;7.80;;;;;;;5.01;79.59;99780.88;344908;28;1051;-69
2022/12/06 00:21:09;;;;;;;13.02;7.90;;;;;;;4.94;79.64;99776.63;343478;28;1830;-69
2022/12/06 00:21:27;;;;;;;11.15;7.50;;;;;;;4.97;79.21;99777.47;344526;28;1289;-69
2022/12/06 00:21:39;;;;;;;12.07;7.85;;;;;;;5.00;79.42;99779.16;343390;28;1072;-69
2022/12/06 00:21:51;;;;;;;13.63;8.00;;;;;;;4.95;78.82;99783.47;343355;28;1174;-69
2022/12/06 00:22:03;;;;;;;12.90;7.85;;;;;;;4.99;78.99;99785.19;341913;28;1832;-69
2022/12/06 00:22:15;;;;;;;12.15;7.78;;;;;;;5.01;79.34;99775.72;343110;28;1621;-69
2022/12/06 00:22:27;;;;;;;11.00;7.50;;;;;;;5.02;78.83;99782.56;342022;28;1055;-69
2022/12/06 00:22:43;;;;;;;11.20;7.32;;;;;;;4.98;79.70;99780.91;343641;28;1043;-69
2022/12/06 00:22:56;;;;;;;11.57;7.43;;;;;;;4.97;80.10;99785.19;343284;28;1071;-69
2022/12/06 00:23:08;;;;;;;11.68;7.47;;;;;;;5.02;79.80;99782.56;343450;28;1114;-69
2022/12/06 00:23:19;;;;;;;11.70;7.60;;;;;;;5.05;79.79;99776.53;344015;28;1445;-69
2022/12/06 00:23:35;;;;;;;11.75;7.70;;;;;;;5.13;79.63;99775.63;344700;28;1107;-69
2022/12/06 00:23:49;;;;;;;11.63;7.28;;;;;;;5.20;79.82;99777.28;346188;28;1037;-69
2022/12/06 00:24:21;;;;;;;11.25;6.80;;;;;;;5.13;79.19;99778.22;344985;28;2201;-69
2022/12/06 00:24:33;;;;;;;10.35;7.05;;;;;;;5.10;79.17;99777.38;344865;28;1553;-69
2022/12/06 00:24:45;;;;;;;10.68;7.13;;;;;;;5.06;78.79;99780.84;345107;28;1322;-69
2022/12/06 00:24:57;;;;;;;10.95;7.38;;;;;;;5.11;78.75;99772.22;344995;28;1077;-69
2022/12/06 00:25:08;;;;;;;11.20;7.30;;;;;;;5.16;79.17;99775.59;344970;28;1038;-69
2022/12/06 00:25:20;;;;;;;11.35;7.38;;;;;;;5.17;78.92;99777.31;344788;28;1918;-69
2022/12/06 00:25:34;;;;;;;11.40;7.20;;;;;;;5.10;78.45;99778.22;346298;28;1070;-69
2022/12/06 00:25:46;;;;;;;10.82;7.05;;;;;;;5.12;79.42;99773.91;345867;28;1364;-69
2022/12/06 00:26:00;;;;;;;9.48;6.72;;;;;;;5.12;78.65;99775.63;345265;28;1583;-69
2022/12/06 00:26:13;;;;;;;10.05;6.85;;;;;;;5.14;78.39;99777.31;346274;28;1145;-69
2022/12/06 00:26:25;;;;;;;12.98;7.40;;;;;;;5.03;79.39;99776.56;345755;28;1868;-69
2022/12/06 00:26:40;;;;;;;13.68;7.40;;;;;;;5.11;79.06;99772.22;344947;28;1181;-69
2022/12/06 00:26:52;;;;;;;12.15;7.40;;;;;;;5.14;78.91;99774.75;345067;28;1889;-69
2022/12/06 00:27:04;;;;;;;11.23;7.43;;;;;;;5.13;78.86;99779.91;345017;28;1118;-69
2022/12/06 00:27:16;;;;;;;11.57;7.20;;;;;;;5.18;79.87;99779.00;345021;28;1355;-69
2022/12/06 00:27:28;;;;;;;11.05;6.97;;;;;;;5.25;79.31;99778.94;346286;28;1264;-69
2022/12/06 00:27:39;;;;;;;11.77;6.90;;;;;;;5.26;79.57;99775.53;345918;28;1427;-69
2022/12/06 00:27:51;;;;;;;12.40;6.95;;;;;;;5.30;79.49;99772.03;346305;28;1240;-69
2022/12/06 00:28:04;;;;;;;11.73;7.25;;;;;;;5.30;78.46;99782.34;346419;28;1324;-69
2022/12/06 00:28:15;;;;;;;11.07;7.03;;;;;;;5.27;78.66;99783.25;346616;28;1342;-69
2022/12/06 00:28:27;;;;;;;10.45;6.82;;;;;;;5.26;78.83;99778.09;346703;28;1320;-69
2022/12/06 00:28:40;;;;;;;10.85;6.70;;;;;;;5.28;78.79;99779.78;345791;28;1868;-69
2022/12/06 00:28:54;;;;;;;10.75;6.72;;;;;;;5.29;78.47;99776.34;346633;28;1140;-69
2022/12/06 00:29:07;;;;;;;10.85;7.10;;;;;;;5.23;78.67;99773.81;346863;28;1049;-69
2022/12/06 00:29:21;;;;;;;11.45;7.45;;;;;;;5.13;78.67;99780.78;346809;28;1209;-69
2022/12/06 00:29:33;;;;;;;11.65;7.45;;;;;;;5.19;79.05;99780.72;345875;28;1916;-69
2022/12/06 00:29:45;;;;;;;11.65;7.35;;;;;;;5.23;78.51;99775.53;345729;28;1894;-69
2022/12/06 00:29:57;;;;;;;10.98;7.28;;;;;;;5.26;78.20;99778.09;345467;28;1824;-69
2022/12/06 00:30:10;;;;;;;11.00;7.13;;;;;;;5.30;79.17;99777.19;344896;28;1761;-69
2022/12/06 00:30:22;;;;;;;10.23;7.03;;;;;;;5.27;79.24;99777.22;346875;28;1348;-69
2022/12/06 00:30:34;;;;;;;10.07;7.13;;;;;;;5.29;78.81;99778.94;346473;28;1112;-69
2022/12/06 00:30:46;;;;;;;10.75;7.03;;;;;;;5.31;78.46;99784.03;346656;28;1069;-69
2022/12/06 00:30:59;;;;;;;11.20;6.88;;;;;;;5.32;78.76;99780.63;346032;28;2721;-69
2022/12/06 00:31:15;;;;;;;11.75;6.82;;;;;;;5.35;79.31;99785.72;346568;28;1072;-69
2022/12/06 00:31:29;;;;;;;11.98;7.47;;;;;;;5.38;79.35;99788.28;345653;28;1132;-69
2022/12/06 00:31:41;;;;;;;12.35;7.68;;;;;;;5.38;78.85;99786.56;345091;28;879;-69
2022/12/06 00:31:53;;;;;;;11.85;7.30;;;;;;;5.34;78.55;99778.88;344990;28;1810;-69
2022/12/06 00:32:05;;;;;;;10.73;7.30;;;;;;;5.34;78.06;99784.03;346695;28;1819;-69
2022/12/06 00:32:17;;;;;;;11.32;6.97;;;;;;;5.36;78.42;99779.72;346545;28;1321;-69
2022/12/06 00:32:30;;;;;;;12.05;7.05;;;;;;;5.33;77.85;99782.31;346421;28;1175;-69
2022/12/06 00:32:42;;;;;;;12.57;7.10;;;;;;;5.31;77.23;99781.47;346595;28;1022;-69
2022/12/06 00:32:54;;;;;;;12.52;7.18;;;;;;;5.33;77.69;99787.47;346759;28;1273;-69
2022/12/06 00:33:06;;;;;;;10.07;6.63;;;;;;;5.31;78.19;99784.94;345441;28;1885;-69
2022/12/06 00:33:18;;;;;;;11.77;6.97;;;;;;;5.26;78.34;99783.25;345624;28;1363;-69
2022/12/06 00:33:30;;;;;;;12.50;7.40;;;;;;;5.31;78.21;99786.63;346611;28;1031;-69
2022/12/06 00:33:42;;;;;;;12.82;7.50;;;;;;;5.29;77.97;99785.78;346255;28;1210;-69
2022/12/06 00:33:54;;;;;;;11.82;7.00;;;;;;;5.29;78.52;99791.81;346508;28;1055;-69
2022/12/06 00:34:06;;;;;;;12.75;7.20;;;;;;;5.28;78.16;99789.25;345848;28;1881;-69
2022/12/06 00:34:18;;;;;;;13.00;7.53;;;;;;;5.30;78.21;99777.19;346444;28;1308;-69
2022/12/06 00:34:30;;;;;;;12.85;7.40;;;;;;;5.31;78.09;99784.94;346543;28;1149;-69
2022/12/06 00:34:42;;;;;;;11.60;7.20;;;;;;;5.27;79.33;99788.41;346450;28;1023;-69
2022/12/06 00:34:54;;;;;;;12.52;7.30;;;;;;;5.15;78.54;99793.63;345821;28;1953;-69
2022/12/06 00:35:06;;;;;;;11.90;7.22;;;;;;;5.17;78.90;99785.03;346344;28;1767;-69
2022/12/06 00:35:18;;;;;;;11.13;7.10;;;;;;;5.23;78.39;99791.00;344836;28;4290;-69
2022/12/06 00:35:30;;;;;;;11.25;6.97;;;;;;;5.28;78.32;99789.25;345394;28;1082;-69
2022/12/06 00:35:42;;;;;;;12.23;7.53;;;;;;;5.29;79.03;99786.66;346031;28;1560;-69
2022/12/06 00:35:58;;;;;;;12.85;7.63;;;;;;;5.34;78.58;99787.47;347642;28;1617;-69
2022/12/06 00:36:13;;;;;;;14.00;7.28;;;;;;;5.32;77.67;99780.63;348172;28;1025;-69
2022/12/06 00:36:29;;;;;;;13.23;7.07;;;;;;;5.38;77.95;99785.72;345627;28;1325;-69
2022/12/06 00:36:42;;;;;;;13.10;7.13;;;;;;;5.40;78.39;99787.41;345494;28;1062;-69
2022/12/06 00:36:53;;;;;;;13.98;6.95;;;;;;;5.43;78.57;99788.25;345009;28;2253;-69
2022/12/06 00:37:05;;;;;;;13.70;6.80;;;;;;;5.44;78.39;99785.66;345472;28;1147;-69
2022/12/06 00:37:17;;;;;;;11.30;6.60;;;;;;;5.45;78.31;99784.75;345400;28;2473;-69
2022/12/06 00:37:29;;;;;;;10.98;6.45;;;;;;;5.44;78.44;99777.91;346568;28;1076;-69
2022/12/06 00:37:41;;;;;;;11.25;6.57;;;;;;;5.47;78.94;99788.19;346603;28;1015;-69
2022/12/06 00:37:53;;;;;;;10.50;6.50;;;;;;;5.48;78.56;99784.75;346574;28;1201;-69
2022/12/06 00:38:05;;;;;;;10.20;6.30;;;;;;;5.48;78.81;99782.19;346294;28;2175;-69
2022/12/06 00:38:17;;;;;;;9.25;6.20;;;;;;;5.51;78.48;99787.28;345636;28;1852;-69
2022/12/06 00:38:29;;;;;;;9.40;6.20;;;;;;;5.54;78.53;99787.28;345827;28;1421;-69
2022/12/06 00:38:41;;;;;;;9.60;6.38;;;;;;;5.51;78.47;99787.28;345487;28;1056;-69
2022/12/06 00:38:54;;;;;;;9.75;6.53;;;;;;;5.54;77.58;99787.28;345847;28;1862;-69
2022/12/06 00:39:11;;;;;;;9.38;6.60;;;;;;;5.60;77.51;99779.47;346622;28;1065;-69
2022/12/06 00:39:23;;;;;;;9.05;6.55;;;;;;;5.58;77.84;99786.38;345804;28;2016;-69
2022/12/06 00:39:35;;;;;;;9.48;6.50;;;;;;;5.57;77.74;99787.25;345256;28;1225;-69
2022/12/06 00:39:47;;;;;;;9.63;6.53;;;;;;;5.52;77.40;99786.44;345078;28;1213;-69
2022/12/06 00:39:59;;;;;;;9.25;6.40;;;;;;;5.46;76.95;99783.91;345083;28;1313;-69
2022/12/06 00:40:11;;;;;;;9.80;6.40;;;;;;;5.40;78.25;99778.81;345043;28;1223;-69
2022/12/06 00:40:23;;;;;;;9.68;6.30;;;;;;;5.42;78.19;99783.97;344574;28;1788;-69
2022/12/06 00:40:35;;;;;;;9.50;6.38;;;;;;;5.34;77.68;99789.19;345202;28;1070;-69
2022/12/06 00:40:47;;;;;;;8.65;6.15;;;;;;;5.29;77.76;99780.63;345135;28;1103;-69
2022/12/06 00:41:20;;;;;;;9.18;6.30;;;;;;;5.18;77.76;99779.00;346114;28;1320;-69
2022/12/06 00:41:32;;;;;;;8.88;6.13;;;;;;;5.19;78.03;99783.31;346509;28;1074;-69
2022/12/06 00:41:44;;;;;;;9.07;6.40;;;;;;;5.19;78.10;99791.03;346106;28;1859;-69
2022/12/06 00:41:56;;;;;;;9.50;6.65;;;;;;;5.23;78.27;99786.69;346181;28;2126;-69
2022/12/06 00:42:08;;;;;;;9.10;6.43;;;;;;;5.28;78.17;99781.50;346224;28;1070;-69
2022/12/06 00:42:20;;;;;;;9.13;6.28;;;;;;;5.28;78.74;99789.25;346747;28;1416;-69
2022/12/06 00:42:32;;;;;;;9.43;6.35;;;;;;;5.33;78.91;99779.72;346657;28;1082;-69
2022/12/06 00:42:44;;;;;;;9.70;6.78;;;;;;;5.38;79.22;99783.13;345806;28;1923;-69
2022/12/06 00:42:55;;;;;;;10.98;7.00;;;;;;;5.35;77.99;99784.03;346614;28;1307;-69
2022/12/06 00:43:07;;;;;;;11.50;6.78;;;;;;;5.37;77.82;99789.16;346749;28;1062;-69
2022/12/06 00:43:19;;;;;;;10.68;6.53;;;;;;;5.37;78.94;99784.00;346590;28;1377;-69
2022/12/06 00:43:32;;;;;;;10.43;6.47;;;;;;;5.40;78.68;99779.66;346615;28;1069;-69
2022/12/06 00:43:44;;;;;;;10.25;6.45;;;;;;;5.41;78.26;99780.50;346905;28;1333;-69
2022/12/06 00:43:57;;;;;;;8.98;6.00;;;;;;;5.41;78.44;99780.50;346479;28;1268;-69
2022/12/06 00:44:09;;;;;;;8.95;6.20;;;;;;;5.42;77.84;99792.53;346620;28;1214;-69
2022/12/06 00:44:21;;;;;;;9.05;6.43;;;;;;;5.31;77.92;99784.03;346222;28;1360;-69
2022/12/06 00:44:33;;;;;;;9.82;6.47;;;;;;;5.32;78.25;99780.63;346654;28;1169;-69
2022/12/06 00:44:45;;;;;;;9.50;6.43;;;;;;;5.31;77.74;99778.88;346608;28;1064;-69
2022/12/06 00:44:57;;;;;;;8.85;6.35;;;;;;;5.28;77.27;99784.94;345429;28;1848;-69
2022/12/06 00:45:09;;;;;;;8.55;6.10;;;;;;;5.25;77.61;99784.09;345873;28;1846;-69
2022/12/06 00:45:21;;;;;;;8.57;5.97;;;;;;;5.30;77.61;99783.19;346126;28;1138;-69
2022/12/06 00:45:33;;;;;;;9.20;6.13;;;;;;;5.27;77.99;99782.38;346458;28;1034;-69
2022/12/06 00:45:45;;;;;;;9.55;6.13;;;;;;;5.28;77.70;99784.94;345520;28;1046;-69
2022/12/06 00:45:58;;;;;;;9.13;6.47;;;;;;;5.31;78.43;99784.94;345039;28;1807;-69
2022/12/06 00:46:16;;;;;;;9.40;6.55;;;;;;;5.38;78.27;99785.72;345256;28;1851;-69
2022/12/06 00:46:29;;;;;;;9.20;6.35;;;;;;;5.43;78.22;99783.09;345141;28;1103;-69
2022/12/06 00:46:41;;;;;;;9.65;6.80;;;;;;;5.45;78.63;99778.75;344924;28;1050;-69
2022/12/06 00:46:53;;;;;;;9.85;7.10;;;;;;;5.46;78.54;99778.75;345489;28;1743;-69
2022/12/06 00:47:05;;;;;;;9.93;6.75;;;;;;;5.47;78.61;99785.59;346079;28;1875;-69
2022/12/06 00:47:17;;;;;;;9.85;6.32;;;;;;;5.49;78.40;99780.44;346233;28;1300;-69
2022/12/06 00:47:29;;;;;;;9.02;5.72;;;;;;;5.50;78.28;99777.00;346668;28;1046;-69
2022/12/06 00:47:41;;;;;;;8.15;5.60;;;;;;;5.49;78.71;99778.72;346594;28;1514;-69
2022/12/06 00:47:53;;;;;;;7.60;5.70;;;;;;;5.51;78.08;99778.69;346798;28;1025;-69
2022/12/06 00:48:05;;;;;;;7.90;5.95;;;;;;;5.55;78.35;99783.84;346607;28;1027;-69
2022/12/06 00:48:17;;;;;;;8.15;6.00;;;;;;;5.57;78.28;99776.94;344915;28;1604;-69
2022/12/06 00:48:29;;;;;;;9.27;6.03;;;;;;;5.60;78.23;99776.91;346248;28;1764;-69
2022/12/06 00:48:43;;;;;;;10.27;6.13;;;;;;;5.62;78.16;99778.63;346828;28;1081;-69
2022/12/06 00:48:56;;;;;;;10.27;6.30;;;;;;;5.63;78.84;99775.16;346301;28;1339;-69
2022/12/06 00:49:08;;;;;;;9.85;5.95;;;;;;;5.66;78.13;99775.13;345420;28;1227;-69
2022/12/06 00:49:20;;;;;;;8.68;5.60;;;;;;;5.67;78.19;99777.66;345558;28;1861;-69
2022/12/06 00:49:32;;;;;;;8.48;5.60;;;;;;;5.68;78.20;99774.25;345321;28;1368;-69
2022/12/06 00:49:44;;;;;;;8.82;5.97;;;;;;;5.70;77.91;99776.81;345186;28;1261;-73
2022/12/06 00:49:56;;;;;;;8.85;6.20;;;;;;;5.72;77.89;99775.06;346191;28;2147;-70
2022/12/06 00:50:09;;;;;;;8.43;5.95;;;;;;;5.75;78.10;99775.00;345752;28;1563;-69
2022/12/06 00:50:21;;;;;;;8.60;5.93;;;;;;;5.72;78.17;99780.22;345238;28;1768;-69
2022/12/06 00:50:33;;;;;;;8.82;6.22;;;;;;;5.65;77.56;99783.72;345182;28;1917;-69
2022/12/06 00:50:45;;;;;;;8.40;6.18;;;;;;;5.66;78.01;99777.72;346342;28;1705;-69
2022/12/06 00:50:57;;;;;;;7.90;5.80;;;;;;;5.69;77.94;99775.94;346900;28;1083;-69
2022/12/06 00:51:09;;;;;;;7.85;5.68;;;;;;;5.59;77.12;99774.31;346100;28;1871;-69
2022/12/06 00:51:23;;;;;;;8.90;6.20;;;;;;;5.53;77.11;99777.84;345136;28;1860;-69
2022/12/06 00:51:36;;;;;;;8.93;6.28;;;;;;;5.54;76.98;99779.53;346348;28;1187;-69
2022/12/06 00:51:48;;;;;;;8.82;6.28;;;;;;;5.51;77.30;99776.97;346819;28;1058;-69
2022/12/06 00:52:00;;;;;;;8.52;6.28;;;;;;;5.57;77.44;99778.63;346838;28;1111;-69
2022/12/06 00:52:12;;;;;;;8.82;6.03;;;;;;;5.62;77.96;99778.63;346843;28;1121;-69
2022/12/06 00:52:24;;;;;;;8.95;5.95;;;;;;;5.60;77.18;99776.91;345580;28;1283;-69
2022/12/06 00:52:36;;;;;;;8.88;6.00;;;;;;;5.64;77.58;99776.88;345188;28;1836;-69
2022/12/06 00:52:48;;;;;;;9.10;6.00;;;;;;;5.66;78.15;99775.13;346741;28;1145;-69
2022/12/06 00:53:00;;;;;;;8.90;5.97;;;;;;;5.68;78.24;99774.25;346682;28;1246;-69
2022/12/06 00:53:12;;;;;;;8.77;5.95;;;;;;;5.67;77.50;99776.81;346756;28;1184;-69
2022/12/06 00:53:24;;;;;;;8.98;6.10;;;;;;;5.64;77.57;99776.88;345683;28;2104;-69
2022/12/06 00:53:37;;;;;;;9.00;6.20;;;;;;;5.65;78.19;99781.16;346091;28;1890;-69
2022/12/06 00:53:49;;;;;;;8.88;5.93;;;;;;;5.67;77.93;99771.66;346457;28;1799;-69
2022/12/06 00:54:02;;;;;;;8.55;5.82;;;;;;;5.64;77.75;99779.44;346390;28;1323;-69
2022/12/06 00:54:15;;;;;;;7.95;5.90;;;;;;;5.67;77.94;99776.81;345477;28;1232;-69
2022/12/06 00:54:26;;;;;;;8.13;6.00;;;;;;;5.69;78.29;99775.09;345446;28;1294;-69
2022/12/06 00:54:38;;;;;;;8.60;5.97;;;;;;;5.72;77.51;99775.91;345436;28;1265;-69
2022/12/06 00:54:50;;;;;;;9.57;6.05;;;;;;;5.74;77.71;99778.47;345739;28;1814;-69
2022/12/06 00:55:02;;;;;;;9.57;6.07;;;;;;;5.72;78.14;99781.06;346761;28;1196;-69
2022/12/06 00:55:14;;;;;;;10.90;6.40;;;;;;;5.67;78.01;99776.81;346869;28;1078;-69
2022/12/06 00:55:26;;;;;;;9.10;6.07;;;;;;;5.62;77.71;99781.19;345624;28;1388;-69
2022/12/06 00:55:38;;;;;;;8.85;6.13;;;;;;;5.63;77.97;99780.31;345323;28;1263;-69
2022/12/06 00:55:50;;;;;;;7.88;5.93;;;;;;;5.60;77.40;99774.31;345002;28;1764;-69
2022/12/06 00:56:03;;;;;;;7.82;6.05;;;;;;;5.56;77.71;99777.78;346550;28;1164;-69
2022/12/06 00:56:16;;;;;;;8.40;6.07;;;;;;;5.52;77.92;99773.53;346501;28;1113;-69
2022/12/06 00:56:28;;;;;;;9.18;6.25;;;;;;;5.51;77.61;99776.97;345113;28;1078;-69
2022/12/06 00:56:40;;;;;;;10.07;6.47;;;;;;;5.50;77.11;99774.44;345267;28;1111;-69
2022/12/06 00:56:52;;;;;;;10.02;6.47;;;;;;;5.47;77.58;99770.13;345200;28;1055;-69
2022/12/06 00:57:04;;;;;;;10.30;6.57;;;;;;;5.51;77.25;99776.97;345800;28;2178;-69
2022/12/06 00:57:16;;;;;;;10.20;6.40;;;;;;;5.48;77.79;99777.03;345428;28;1873;-69
2022/12/06 00:57:28;;;;;;;10.10;6.18;;;;;;;5.47;77.90;99770.13;344216;28;1228;-69
2022/12/06 00:57:40;;;;;;;10.93;6.10;;;;;;;5.53;77.38;99775.25;344363;28;1084;-69
2022/12/06 00:57:52;;;;;;;12.25;6.25;;;;;;;5.57;78.01;99776.94;345932;28;1818;-69
2022/12/06 00:58:03;;;;;;;11.95;6.25;;;;;;;5.54;77.39;99771.81;345849;28;1870;-69
2022/12/06 00:58:16;;;;;;;9.13;6.00;;;;;;;5.54;77.72;99776.97;345988;28;1900;-69
2022/12/06 00:58:28;;;;;;;9.73;6.10;;;;;;;5.52;78.15;99773.53;345465;28;2230;-69
2022/12/06 00:58:41;;;;;;;9.02;5.97;;;;;;;5.54;77.73;99771.81;346024;28;1837;-69
2022/12/06 00:58:53;;;;;;;8.23;5.82;;;;;;;5.57;78.17;99761.47;345150;28;1905;-69
2022/12/06 00:59:05;;;;;;;9.55;6.18;;;;;;;5.61;77.82;99775.16;345482;28;1645;-69
2022/12/06 00:59:17;;;;;;;10.77;6.30;;;;;;;5.66;78.17;99775.13;345826;28;1585;-69
2022/12/06 00:59:29;;;;;;;10.20;6.20;;;;;;;5.67;78.17;99771.66;347134;28;1716;-69
2022/12/06 00:59:41;;;;;;;8.95;6.20;;;;;;;5.65;77.74;99768.25;345411;28;1821;-69
2022/12/06 00:59:53;;;;;;;8.57;6.20;;;;;;;5.66;78.02;99773.41;345462;28;1301;-69
2022/12/06 01:00:06;;;;;;;8.07;5.97;;;;;;;5.70;78.10;99769.06;345164;28;1843;-69
2022/12/06 01:00:18;;;;;;;7.53;5.72;;;;;;;5.72;77.60;99769.91;346358;28;1311;-69
2022/12/06 01:00:30;;;;;;;8.75;5.72;;;;;;;5.74;77.56;99769.00;346496;28;1312;-69
2022/12/06 01:00:43;;;;;;;9.80;6.10;;;;;;;5.72;77.76;99773.34;346224;28;1926;-69
2022/12/06 01:00:55;;;;;;;9.30;5.90;;;;;;;5.74;78.21;99763.00;345466;28;1061;-69
2022/12/06 01:01:26;;;;;;;9.63;5.80;;;;;;;5.74;77.12;99773.31;345232;28;1817;-69
2022/12/06 01:01:39;;;;;;;8.98;5.55;;;;;;;5.77;77.39;99765.53;346668;28;1105;-69
2022/12/06 01:01:51;;;;;;;8.13;5.53;;;;;;;5.80;78.01;99768.09;346794;28;1068;-69
2022/12/06 01:02:06;;;;;;;8.55;5.75;;;;;;;5.78;78.15;99770.69;346643;28;1097;-69
2022/12/06 01:02:18;;;;;;;8.52;5.93;;;;;;;5.79;77.26;99766.38;345491;28;1698;-69
2022/12/06 01:02:29;;;;;;;8.52;6.10;;;;;;;5.81;78.01;99769.78;346453;28;1765;-69